Cusick, Washington
Current Conditions -  °F | °C
As of 7:53 AM on Tuesday 21 Oct 2014 (Local Time) from KDEW Reporting Station
Overcast Overcast  
Wind Chill:   Ceiling: 1100
Heat Index:   Visibility: 10mi
Dew Point:   Wind: 7mph
Humidity: 86%   Direction: 210°SSW
Pressure: 29.88"   Gusts: NA
Location:  48.34°N, 117.3°W
Report Text: KDEW 211453Z AUTO 21006KT 10SM OVC011 09/07 A2988 RMK AO2 SLP116 T00940072 53007
Loading
Personal Weather Stations






























Interactive Weather Map
Tropical Storm Tracking
New forecast layout! Learn more

10-Day Weather Forecast

Advertisements
Track Severe Weather on mobile